createdAt,value
2019-04-22T00:00:55.640Z,101753.64
2019-04-22T00:03:27.899Z,101746.84
2019-04-22T00:06:12.860Z,101749.40
2019-04-22T00:08:50.645Z,101743.92
2019-04-22T00:11:25.987Z,101748.66
2019-04-22T00:13:51.954Z,101743.55
2019-04-22T00:16:22.599Z,101744.05
2019-04-22T00:19:13.183Z,101744.38
2019-04-22T00:21:19.788Z,101740.43
2019-04-22T00:23:51.968Z,101738.72
2019-04-22T00:26:26.084Z,101740.39
2019-04-22T00:28:50.079Z,101735.72
2019-04-22T00:31:20.947Z,101736.21
2019-04-22T00:33:53.174Z,101734.13
2019-04-22T00:36:25.569Z,101726.02
2019-04-22T00:38:59.026Z,101724.66
2019-04-22T00:41:34.136Z,101726.78
2019-04-22T00:43:59.531Z,101729.11
2019-04-22T00:46:27.552Z,101729.89
2019-04-22T00:49:18.730Z,101731.10
2019-04-22T00:51:28.599Z,101729.95
2019-04-22T00:53:54.556Z,101723.33
2019-04-22T00:56:24.730Z,101718.77
2019-04-22T00:58:56.586Z,101732.16
2019-04-22T01:01:23.716Z,101729.04
2019-04-22T01:06:25.849Z,101724.61
2019-04-22T01:08:57.897Z,101726.81
2019-04-22T01:11:29.541Z,101719.31
2019-04-22T01:13:55.824Z,101717.48
2019-04-22T01:16:30.947Z,101711.13
2019-04-22T01:18:55.637Z,101709.98
2019-04-22T01:21:36.802Z,101710.36
2019-04-22T01:23:59.880Z,101717.41
2019-04-22T01:26:25.559Z,101710.02
2019-04-22T01:28:50.049Z,101710.02
2019-04-22T01:31:15.995Z,101706.42
2019-04-22T01:33:46.440Z,101691.70
2019-04-22T01:36:25.956Z,101712.59
2019-04-22T01:39:01.996Z,101706.94
2019-04-22T01:41:42.441Z,101701.64
2019-04-22T01:44:14.363Z,101701.98
2019-04-22T01:46:42.637Z,101708.59
2019-04-22T01:49:10.052Z,101705.68
2019-04-22T01:51:51.781Z,101712.19
2019-04-22T01:54:15.151Z,101712.19
2019-04-22T01:56:40.847Z,101708.70
2019-04-22T01:58:59.202Z,101708.70
2019-04-22T02:01:43.702Z,101703.55
2019-04-22T02:04:10.471Z,101703.55
2019-04-22T02:06:43.960Z,101696.83
2019-04-22T02:09:17.344Z,101692.39
2019-04-22T02:11:45.492Z,101692.39
2019-04-22T02:14:11.688Z,101686.38
2019-04-22T02:16:48.176Z,101700.81
2019-04-22T02:19:18.447Z,101700.81
2019-04-22T02:21:35.433Z,101688.40
2019-04-22T02:24:09.271Z,101697.30
2019-04-22T02:26:41.953Z,101693.54
2019-04-22T02:29:15.096Z,101693.54
2019-04-22T02:31:44.199Z,101695.39
2019-04-22T02:34:22.263Z,101691.68
2019-04-22T02:36:41.144Z,101683.16
2019-04-22T02:39:12.107Z,101683.16
2019-04-22T02:41:43.814Z,101687.81
2019-04-22T02:44:16.904Z,101685.17
2019-04-22T02:47:07.882Z,101689.95
2019-04-22T02:49:22.228Z,101689.95
2019-04-22T02:51:38.679Z,101680.70
2019-04-22T02:54:44.679Z,101685.37
2019-04-22T02:56:48.744Z,101679.92
2019-04-22T02:59:14.615Z,101679.92
2019-04-22T03:01:51.449Z,101672.00
2019-04-22T03:06:45.900Z,101679.27
2019-04-22T03:09:19.049Z,101675.83
2019-04-22T03:11:56.698Z,101675.83
2019-04-22T03:14:19.569Z,101677.11
2019-04-22T03:16:43.218Z,101675.02
2019-04-22T03:19:25.443Z,101670.70
2019-04-22T03:21:48.659Z,101666.49
2019-04-22T03:26:48.531Z,101654.02
2019-04-22T03:29:18.105Z,101654.02
2019-04-22T03:39:43.541Z,101659.42
2019-04-22T03:42:06.401Z,101661.91
2019-04-22T03:44:31.023Z,101662.45
2019-04-22T03:52:07.358Z,101665.47
2019-04-22T03:54:43.716Z,101667.59
2019-04-22T03:59:33.734Z,101665.73
2019-04-22T04:09:32.692Z,101649.30
2019-04-22T04:12:03.976Z,101656.47
2019-04-22T04:17:02.166Z,101653.84
2019-04-22T04:19:34.169Z,101652.66
2019-04-22T04:21:58.182Z,101653.20
2019-04-22T04:27:06.714Z,101650.57
2019-04-22T04:32:20.741Z,101653.58
2019-04-22T04:34:54.281Z,101653.30
2019-04-22T04:37:07.355Z,101651.27
2019-04-22T04:39:34.231Z,101645.85
2019-04-22T04:42:28.251Z,101644.72
2019-04-22T04:44:47.854Z,101648.08
2019-04-22T04:47:11.588Z,101658.96
2019-04-22T04:49:34.578Z,101655.25
2019-04-22T04:52:10.178Z,101654.67
2019-04-22T04:57:00.750Z,101653.30
2019-04-22T05:02:02.365Z,101655.81
2019-04-22T05:07:09.226Z,101661.49
2019-04-22T05:09:25.202Z,101661.49
2019-04-22T05:12:24.580Z,101657.47
2019-04-22T05:17:18.445Z,101639.66
2019-04-22T05:19:32.473Z,101627.16
2019-04-22T05:21:59.553Z,101622.39
2019-04-22T05:24:32.615Z,101625.30
2019-04-22T05:27:11.283Z,101623.04
2019-04-22T05:30:00.642Z,101625.88
2019-04-22T05:31:56.784Z,101630.30
2019-04-22T05:34:28.197Z,101629.91
2019-04-22T05:37:00.949Z,101631.66
2019-04-22T05:39:43.657Z,101636.70
2019-04-22T05:42:03.658Z,101627.59
2019-04-22T05:44:29.468Z,101631.38
2019-04-22T05:46:54.442Z,101628.55
2019-04-22T05:49:33.232Z,101627.89
2019-04-22T05:51:55.079Z,101629.89
2019-04-22T05:54:27.885Z,101630.47
2019-04-22T05:56:53.064Z,101624.23
2019-04-22T05:59:36.205Z,101621.73
2019-04-22T06:04:32.419Z,101633.27
2019-04-22T06:07:02.826Z,101629.39
2019-04-22T06:09:30.221Z,101640.37
2019-04-22T06:11:58.905Z,101633.67
2019-04-22T06:14:31.092Z,101634.89
2019-04-22T06:17:08.189Z,101646.11
2019-04-22T06:19:33.231Z,101638.03
2019-04-22T06:22:04.272Z,101635.97
2019-04-22T06:24:31.447Z,101639.09
2019-04-22T06:27:08.298Z,101639.34
2019-04-22T06:29:31.878Z,101631.92
2019-04-22T06:34:48.606Z,101633.22
2019-04-22T06:37:07.245Z,101634.55
2019-04-22T06:42:08.715Z,101627.69
2019-04-22T06:44:36.881Z,101631.23
2019-04-22T06:47:05.320Z,101629.52
2019-04-22T06:49:36.612Z,101629.79
2019-04-22T06:57:06.162Z,101627.52
2019-04-22T06:59:36.579Z,101619.71
2019-04-22T07:02:10.066Z,101626.82
2019-04-22T07:04:36.440Z,101624.02
2019-04-22T07:07:08.389Z,101625.52
2019-04-22T07:09:42.906Z,101625.86
2019-04-22T07:12:12.078Z,101622.27
2019-04-22T07:14:35.623Z,101621.13
2019-04-22T07:17:07.125Z,101616.43
2019-04-22T07:19:38.325Z,101614.42
2019-04-22T07:22:11.064Z,101613.10
2019-04-22T07:24:53.781Z,101611.17
2019-04-22T07:27:10.611Z,101610.39
2019-04-22T07:29:42.792Z,101613.92
2019-04-22T07:32:07.817Z,101606.79
2019-04-22T07:34:41.167Z,101610.75
2019-04-22T07:37:22.738Z,101610.15
2019-04-22T07:39:44.124Z,101609.56
2019-04-22T07:42:12.680Z,101613.14
2019-04-22T07:44:38.453Z,101613.84
2019-04-22T07:47:15.326Z,101611.78
2019-04-22T07:52:09.782Z,101604.28
2019-04-22T07:54:43.378Z,101606.05
2019-04-22T07:57:15.330Z,101597.42
2019-04-22T07:59:40.396Z,101599.84
2019-04-22T08:02:10.183Z,101591.41
2019-04-22T08:07:18.106Z,101591.02
2019-04-22T08:09:44.597Z,101591.02
2019-04-22T08:12:02.115Z,101592.17
2019-04-22T08:14:40.884Z,101594.23
2019-04-22T08:17:38.701Z,101583.91
2019-04-22T08:19:43.215Z,101584.67
2019-04-22T08:22:11.704Z,101590.84
2019-04-22T08:24:43.542Z,101593.09
2019-04-22T08:27:11.599Z,101585.27
2019-04-22T08:29:52.403Z,101588.58
2019-04-22T08:32:14.358Z,101593.41
2019-04-22T08:34:42.799Z,101585.89
2019-04-22T08:37:41.499Z,101582.68
2019-04-22T08:39:45.339Z,101587.35
2019-04-22T08:42:23.442Z,101588.20
2019-04-22T08:45:01.226Z,101582.50
2019-04-22T08:49:53.581Z,101580.90
2019-04-22T08:52:16.404Z,101575.78
2019-04-22T08:54:43.695Z,101575.79
2019-04-22T08:57:18.267Z,101578.89
2019-04-22T08:59:43.615Z,101573.31
2019-04-22T09:02:19.814Z,101575.95
2019-04-22T09:04:45.439Z,101573.77
2019-04-22T09:07:21.219Z,101577.60
2019-04-22T09:09:45.960Z,101569.70
2019-04-22T09:12:15.909Z,101568.73
2019-04-22T09:19:47.809Z,101570.55
2019-04-22T09:22:18.306Z,101567.42
2019-04-22T09:24:47.025Z,101575.50
2019-04-22T09:27:24.918Z,101569.75
2019-04-22T09:29:42.866Z,101563.30
2019-04-22T09:32:34.781Z,101560.75
2019-04-22T09:34:46.985Z,101566.41
2019-04-22T09:37:26.866Z,101556.77
2019-04-22T09:39:51.930Z,101557.45
2019-04-22T09:42:18.837Z,101557.48
2019-04-22T09:44:47.281Z,101551.75
2019-04-22T09:47:21.136Z,101548.77
2019-04-22T09:49:54.869Z,101552.78
2019-04-22T09:52:14.904Z,101542.66
2019-04-22T09:54:57.866Z,101543.48
2019-04-22T09:57:21.435Z,101536.44
2019-04-22T09:59:57.768Z,101538.89
2019-04-22T10:02:30.558Z,101535.55
2019-04-22T10:04:54.049Z,101533.61
2019-04-22T10:07:24.133Z,101515.37
2019-04-22T10:09:59.790Z,101519.15
2019-04-22T10:12:30.479Z,101522.62
2019-04-22T10:14:51.200Z,101514.27
2019-04-22T10:17:20.286Z,101511.34
2019-04-22T10:20:07.111Z,101505.58
2019-04-22T10:22:27.575Z,101503.21
2019-04-22T10:24:53.576Z,101503.70
2019-04-22T10:27:23.900Z,101507.78
2019-04-22T10:30:04.117Z,101493.80
2019-04-22T10:32:20.646Z,101496.43
2019-04-22T10:34:40.951Z,101499.02
2019-04-22T16:19:06.947Z,101204.11
2019-04-22T16:21:45.528Z,101202.52
2019-04-22T16:24:18.218Z,101198.31
2019-04-22T16:26:48.630Z,101202.81
2019-04-22T16:29:17.166Z,101196.81
2019-04-22T16:31:45.649Z,101205.52
2019-04-22T16:34:15.454Z,101204.64
2019-04-22T16:36:44.892Z,101196.28
2019-04-22T16:39:15.124Z,101200.36
2019-04-22T16:41:44.579Z,101199.81
2019-04-22T16:44:14.376Z,101201.08
2019-04-22T16:46:43.606Z,101190.62
2019-04-22T16:49:13.778Z,101189.66
2019-04-22T16:51:42.436Z,101192.69
2019-04-22T16:54:11.829Z,101193.03
2019-04-22T16:56:41.787Z,101193.66
2019-04-22T16:59:10.739Z,101187.00
2019-04-22T17:01:44.027Z,101198.09
2019-04-22T17:04:17.040Z,101187.56
2019-04-22T17:06:47.822Z,101180.52
2019-04-22T17:09:17.737Z,101187.05
2019-04-22T17:11:47.778Z,101181.23
2019-04-22T17:14:17.977Z,101186.14
2019-04-22T17:16:46.654Z,101195.87
2019-04-22T17:19:15.419Z,101189.89
2019-04-22T17:21:43.879Z,101189.13
2019-04-22T17:24:12.306Z,101190.30
2019-04-22T17:26:42.189Z,101184.58
2019-04-22T17:29:12.337Z,101188.03
2019-04-22T17:31:48.425Z,101187.41
2019-04-22T17:34:11.568Z,101179.53
2019-04-22T17:36:40.587Z,101190.56
2019-04-22T17:39:22.866Z,101183.31
2019-04-22T17:41:59.355Z,101187.86
2019-04-22T17:44:37.689Z,101189.66
2019-04-22T17:46:58.544Z,101195.87
2019-04-22T17:49:49.924Z,101199.77
2019-04-22T17:54:50.468Z,101191.22
2019-04-22T17:57:21.626Z,101202.56
2019-04-22T17:59:55.321Z,101193.20
2019-04-22T18:02:22.142Z,101207.88
2019-04-22T18:04:40.399Z,101200.00
2019-04-22T18:07:33.006Z,101206.73
2019-04-22T18:10:16.489Z,101213.30
2019-04-22T18:12:34.312Z,101212.33
2019-04-22T18:15:11.343Z,101219.53
2019-04-22T18:17:25.023Z,101228.36
2019-04-22T18:19:52.025Z,101226.23
2019-04-22T18:22:19.755Z,101235.57
2019-04-22T18:24:51.641Z,101245.89
2019-04-22T18:27:38.926Z,101238.91
2019-04-22T18:29:52.008Z,101248.90
2019-04-22T18:32:16.543Z,101257.59
2019-04-22T18:34:48.001Z,101257.37
2019-04-22T18:37:20.976Z,101257.78
2019-04-22T18:39:56.966Z,101261.61
2019-04-22T18:42:23.148Z,101258.47
2019-04-22T18:45:06.551Z,101265.30
2019-04-22T18:47:23.757Z,101270.95
2019-04-22T18:49:53.239Z,101280.15
2019-04-22T18:52:47.035Z,101287.03
2019-04-22T18:55:14.547Z,101281.14
2019-04-22T18:58:02.991Z,101294.22
2019-04-22T19:00:21.442Z,101300.31
2019-04-22T19:02:56.430Z,101298.80
2019-04-22T19:05:34.753Z,101301.75
2019-04-22T19:08:18.186Z,101293.20
2019-04-22T19:10:51.825Z,101304.89
2019-04-22T19:13:47.344Z,101311.73
2019-04-22T19:15:42.903Z,101308.58
2019-04-22T19:18:22.171Z,101314.91
2019-04-22T19:20:52.050Z,101320.69
2019-04-22T19:23:20.713Z,101320.00
2019-04-22T19:25:42.374Z,101321.45
2019-04-22T19:28:23.939Z,101322.56
2019-04-22T19:30:47.973Z,101323.70
2019-04-22T19:33:19.066Z,101319.67
2019-04-22T19:35:40.176Z,101326.88
2019-04-22T19:38:11.669Z,101329.02
2019-04-22T19:40:55.583Z,101325.10
2019-04-22T19:43:24.084Z,101320.50
2019-04-22T19:45:46.007Z,101322.50
2019-04-22T19:48:27.203Z,101325.08
2019-04-22T19:50:58.952Z,101321.80
2019-04-22T19:53:22.747Z,101326.06
2019-04-22T19:55:49.666Z,101325.91
2019-04-22T19:58:18.500Z,101326.02
2019-04-22T20:00:56.254Z,101327.51
2019-04-22T20:03:54.527Z,101332.80
2019-04-22T20:06:26.839Z,101328.60
2019-04-22T20:08:59.767Z,101326.98
2019-04-22T20:11:31.653Z,101324.01
2019-04-22T20:14:02.708Z,101324.77
2019-04-22T20:16:28.115Z,101331.96
2019-04-22T20:19:06.924Z,101320.38
2019-04-22T20:21:28.592Z,101322.36
2019-04-22T20:23:53.042Z,101326.72
2019-04-22T20:26:26.226Z,101318.37
2019-04-22T20:28:58.946Z,101310.05
2019-04-22T20:31:30.134Z,101318.06
2019-04-22T20:34:05.023Z,101312.86
2019-04-22T20:36:53.708Z,101323.42
2019-04-22T20:38:59.538Z,101317.52
2019-04-22T20:41:24.940Z,101320.49
2019-04-22T20:44:08.098Z,101317.75
2019-04-22T20:46:31.160Z,101312.38
2019-04-22T20:49:01.334Z,101319.44
2019-04-22T20:51:45.896Z,101312.16
2019-04-22T20:54:02.189Z,101308.92
2019-04-22T20:56:29.965Z,101303.09
2019-04-22T20:59:01.975Z,101303.44
2019-04-22T21:01:35.674Z,101297.87
2019-04-22T21:03:50.934Z,101293.33
2019-04-22T21:06:33.509Z,101289.91
2019-04-22T21:09:07.334Z,101286.21
2019-04-22T21:11:34.331Z,101287.50
2019-04-22T21:14:07.742Z,101292.76
2019-04-22T21:16:40.011Z,101287.38
2019-04-22T21:19:18.628Z,101285.28
2019-04-22T21:21:46.679Z,101293.28
2019-04-22T21:24:18.572Z,101275.34
2019-04-22T21:26:45.359Z,101283.16
2019-04-22T21:29:17.300Z,101276.83
2019-04-22T21:31:59.010Z,101270.73
2019-04-22T21:34:26.343Z,101273.66
2019-04-22T21:37:12.207Z,101261.42
2019-04-22T21:39:33.392Z,101263.74
2019-04-22T21:42:04.838Z,101263.32
2019-04-22T21:44:39.852Z,101264.92
2019-04-22T21:47:17.749Z,101254.05
2019-04-22T21:49:40.481Z,101259.94
2019-04-22T21:52:18.137Z,101257.00
2019-04-22T21:54:57.163Z,101247.61
2019-04-22T21:57:35.236Z,101245.51
2019-04-22T22:00:17.307Z,101242.55
2019-04-22T22:02:41.117Z,101238.84
2019-04-22T22:05:07.185Z,101237.06
2019-04-22T22:07:25.623Z,101229.67
2019-04-22T22:10:19.725Z,101230.92
2019-04-22T22:12:52.470Z,101223.26
2019-04-22T22:15:21.003Z,101222.49
2019-04-22T22:17:51.648Z,101214.49
2019-04-22T22:20:21.678Z,101219.87
2019-04-22T22:23:21.927Z,101216.92
2019-04-22T22:25:28.143Z,101210.80
2019-04-22T22:28:08.892Z,101217.78
2019-04-22T22:33:10.471Z,101210.36
2019-04-22T22:35:49.791Z,101206.59
2019-04-22T22:38:19.206Z,101206.25
2019-04-22T22:40:35.901Z,101210.27
2019-04-22T22:43:17.250Z,101214.39
2019-04-22T22:45:48.533Z,101204.15
2019-04-22T22:48:36.806Z,101200.58
2019-04-22T22:51:02.082Z,101201.64
2019-04-22T22:53:42.915Z,101202.48
2019-04-22T22:56:14.009Z,101192.66
2019-04-22T22:58:41.201Z,101196.88
2019-04-22T23:01:09.638Z,101193.52
2019-04-22T23:03:54.389Z,101188.66
2019-04-22T23:06:20.741Z,101185.27
2019-04-22T23:08:51.817Z,101180.73
2019-04-22T23:11:20.601Z,101182.22
2019-04-22T23:13:51.223Z,101183.90
2019-04-22T23:16:15.162Z,101180.84
2019-04-22T23:18:34.122Z,101171.56
2019-04-22T23:21:03.185Z,101176.96
2019-04-22T23:23:51.565Z,101175.36
2019-04-22T23:26:29.928Z,101173.77
2019-04-22T23:29:13.442Z,101164.39
2019-04-22T23:31:44.145Z,101167.14
2019-04-22T23:34:18.428Z,101170.41
2019-04-22T23:36:56.036Z,101165.77
2019-04-22T23:39:33.306Z,101160.51
2019-04-22T23:42:15.938Z,101168.09
2019-04-22T23:44:39.718Z,101167.56
2019-04-22T23:47:10.995Z,101165.77
2019-04-22T23:49:52.590Z,101157.01
2019-04-22T23:52:23.885Z,101164.52
2019-04-22T23:55:03.337Z,101164.52
2019-04-22T23:57:33.361Z,101157.12
